Time;durP1;ratioP1;P1;durP2;ratioP2;P2;SDS_P1;SDS_P2;PMS_P1;PMS_P2;Temp;Humidity;BMP_temperature;BMP_pressure;BME280_temperature;BME280_humidity;BME280_pressure;Samples;Min_cycle;Max_cycle;Signal;HPM_P1;HPM_P2
2023/12/19 00:01:53;;;;;;;13.77;8.23;;;;;;;5.47;75.02;100833.78;5052310;28;20021;-36
2023/12/19 00:04:19;;;;;;;14.57;8.52;;;;;;;5.41;75.53;100826.47;5052024;28;20116;-36
2023/12/19 00:06:44;;;;;;;12.73;7.60;;;;;;;5.44;75.06;100828.78;5049722;28;20056;-38
2023/12/19 00:09:10;;;;;;;15.90;8.10;;;;;;;5.67;73.90;100833.72;5051976;28;20021;-38
2023/12/19 00:11:35;;;;;;;12.15;8.05;;;;;;;5.44;73.90;100831.44;5050596;28;20055;-39
2023/12/19 00:14:00;;;;;;;15.15;8.15;;;;;;;5.34;74.22;100832.44;5051447;28;20029;-39
2023/12/19 00:16:26;;;;;;;16.50;9.05;;;;;;;5.13;74.61;100824.72;5051787;28;20377;-39
2023/12/19 00:18:52;;;;;;;14.20;8.23;;;;;;;5.12;74.72;100833.59;5051608;28;20025;-38
2023/12/19 00:21:17;;;;;;;15.23;8.95;;;;;;;5.13;75.11;100827.34;5031838;28;20033;-36
2023/12/19 00:23:43;;;;;;;10.73;6.90;;;;;;;5.12;74.78;100834.41;5031745;28;20113;-36
2023/12/19 00:26:11;;;;;;;10.38;6.28;;;;;;;5.34;74.06;100833.28;5031720;28;20033;-37
2023/12/19 00:28:36;;;;;;;11.23;6.40;;;;;;;5.54;73.10;100833.22;5031427;28;20033;-36
2023/12/19 00:31:02;;;;;;;12.23;6.60;;;;;;;5.66;72.49;100829.44;5031957;28;20079;-39
2023/12/19 00:33:27;;;;;;;10.30;6.15;;;;;;;5.79;72.18;100827.28;5031464;28;20497;-39
2023/12/19 00:35:52;;;;;;;11.68;6.93;;;;;;;6.01;71.62;100831.38;5031416;28;20030;-38
2023/12/19 00:38:18;;;;;;;15.43;8.10;;;;;;;6.16;69.75;100833.53;5045596;28;20457;-39
2023/12/19 00:40:44;;;;;;;17.85;9.35;;;;;;;5.97;70.46;100837.94;5051300;28;20067;-38
2023/12/19 00:43:09;;;;;;;18.73;9.82;;;;;;;5.68;71.76;100838.88;5051206;28;20547;-38
2023/12/19 00:45:35;;;;;;;17.35;9.93;;;;;;;5.80;71.45;100842.16;5050852;28;20100;-37
2023/12/19 00:48:00;;;;;;;19.25;9.68;;;;;;;5.37;72.79;100835.66;5051355;28;20382;-37
2023/12/19 00:50:26;;;;;;;19.20;9.95;;;;;;;5.32;73.08;100837.88;5051041;28;20093;-38
2023/12/19 00:52:51;;;;;;;17.90;9.60;;;;;;;5.19;74.18;100834.69;5050687;28;20087;-38
2023/12/19 00:55:17;;;;;;;16.88;9.77;;;;;;;5.42;73.84;100838.66;5050987;28;20112;-39
2023/12/19 00:57:42;;;;;;;18.35;9.95;;;;;;;5.14;74.76;100834.28;5051261;28;20037;-39
2023/12/19 01:00:08;;;;;;;21.38;9.90;;;;;;;5.12;75.00;100823.88;5051184;28;20060;-37
2023/12/19 01:02:34;;;;;;;16.63;9.40;;;;;;;5.14;74.89;100827.22;5051370;28;20040;-39
2023/12/19 01:04:59;;;;;;;19.88;9.90;;;;;;;4.79;76.18;100819.88;5050918;28;20016;-38
2023/12/19 01:07:25;;;;;;;18.13;9.38;;;;;;;4.89;76.01;100812.78;5050934;28;20430;-39
2023/12/19 01:09:50;;;;;;;18.83;9.85;;;;;;;5.01;75.68;100813.50;5051235;28;20029;-38
2023/12/19 01:12:18;;;;;;;18.92;10.20;;;;;;;4.74;76.67;100806.28;5050874;28;20162;-38
2023/12/19 01:14:44;;;;;;;17.70;10.23;;;;;;;4.70;77.39;100813.63;5050605;28;20098;-36
2023/12/19 01:17:09;;;;;;;22.13;10.63;;;;;;;4.94;77.53;100813.22;5050680;28;20489;-39
2023/12/19 01:19:35;;;;;;;20.30;10.85;;;;;;;4.93;77.33;100808.06;5050725;28;20028;-39
2023/12/19 01:22:00;;;;;;;19.88;10.30;;;;;;;4.93;76.73;100814.19;5051103;28;20025;-39
2023/12/19 01:24:25;;;;;;;19.63;11.15;;;;;;;4.63;76.70;100808.09;5050746;28;20131;-39
2023/12/19 01:26:51;;;;;;;20.17;11.55;;;;;;;4.37;76.89;100804.34;5050689;28;20083;-37
2023/12/19 01:29:18;;;;;;;21.10;11.00;;;;;;;4.30;78.13;100806.66;5050351;28;20469;-36
2023/12/19 01:31:43;;;;;;;21.05;11.32;;;;;;;4.19;78.68;100798.88;5050947;28;20072;-39
2023/12/19 01:34:09;;;;;;;17.70;9.63;;;;;;;4.28;79.44;100800.69;5050507;28;20072;-39
2023/12/19 01:36:34;;;;;;;20.67;10.32;;;;;;;4.30;79.29;100804.03;5050186;28;20032;-38
2023/12/19 01:39:00;;;;;;;18.23;10.27;;;;;;;4.68;78.00;100797.13;5050458;28;20037;-39
2023/12/19 01:41:25;;;;;;;22.27;10.35;;;;;;;4.72;76.41;100772.13;5049234;28;20056;-39
2023/12/19 01:43:57;;;;;;;18.48;9.98;;;;;;;4.94;76.09;100781.56;5050536;28;20017;-40
2023/12/19 01:46:22;;;;;;;16.00;9.05;;;;;;;4.78;75.81;100787.41;5050534;28;20021;-40
2023/12/19 01:48:47;;;;;;;15.13;8.60;;;;;;;4.95;75.41;100782.38;5065913;28;20091;-39
2023/12/19 01:51:13;;;;;;;14.93;8.20;;;;;;;5.16;74.24;100776.91;5050620;28;20035;-39
2023/12/19 01:53:41;;;;;;;13.35;7.50;;;;;;;5.17;74.06;100782.06;5050119;28;20025;-40
2023/12/19 01:56:08;;;;;;;13.05;8.20;;;;;;;5.23;73.83;100778.84;5050754;28;20129;-39
2023/12/19 01:58:34;;;;;;;12.32;7.05;;;;;;;5.15;73.54;100773.44;5050271;28;20032;-40
2023/12/19 02:01:00;;;;;;;14.15;7.00;;;;;;;5.06;73.82;100776.94;5050567;28;20121;-40
2023/12/19 02:03:26;;;;;;;13.25;7.10;;;;;;;5.15;73.32;100773.44;5051157;28;20068;-39
2023/12/19 02:05:53;;;;;;;10.65;6.40;;;;;;;5.13;73.35;100780.69;5048333;28;20111;-40
2023/12/19 02:08:19;;;;;;;12.00;6.55;;;;;;;5.13;73.26;100780.69;5034170;28;20457;-39
2023/12/19 02:10:44;;;;;;;11.52;6.35;;;;;;;4.98;73.98;100787.38;5034300;28;20108;-38
2023/12/19 02:13:10;;;;;;;11.20;6.95;;;;;;;5.01;73.77;100777.38;5034095;28;20041;-37
2023/12/19 02:15:35;;;;;;;19.70;10.63;;;;;;;5.03;73.45;100791.25;5034199;28;20113;-38
2023/12/19 02:18:17;;;;;;;19.23;10.20;;;;;;;4.87;74.35;100783.09;5034180;28;20052;-38
2023/12/19 02:20:42;;;;;;;17.85;9.48;;;;;;;4.79;74.96;100786.44;5033957;28;20036;-39
2023/12/19 02:23:12;;;;;;;21.55;11.50;;;;;;;4.83;74.67;100781.72;5047192;28;20024;-40
2023/12/19 02:25:37;;;;;;;17.70;9.35;;;;;;;4.81;74.97;100770.47;5054028;28;20432;-40
2023/12/19 02:28:03;;;;;;;15.68;8.32;;;;;;;4.62;76.31;100766.88;5053509;28;20025;-39
2023/12/19 02:30:29;;;;;;;14.02;8.18;;;;;;;4.69;76.02;100769.78;5054092;28;20061;-37
2023/12/19 02:32:55;;;;;;;15.73;7.90;;;;;;;4.79;75.24;100759.22;5053438;28;20480;-39
2023/12/19 02:35:20;;;;;;;12.52;7.50;;;;;;;5.03;73.71;100769.34;5053649;28;20112;-39
2023/12/19 02:37:47;;;;;;;14.63;8.05;;;;;;;5.15;73.33;100768.19;5053665;28;20481;-40
2023/12/19 02:40:12;;;;;;;10.93;6.40;;;;;;;4.73;74.82;100771.16;5053540;28;20036;-40
2023/12/19 02:42:41;;;;;;;14.95;7.15;;;;;;;5.03;73.83;100769.34;5053442;28;20024;-40
2023/12/19 02:45:10;;;;;;;12.60;7.35;;;;;;;5.17;72.96;100771.50;5053323;28;20028;-39
2023/12/19 02:47:36;;;;;;;11.75;7.20;;;;;;;5.05;73.33;100783.22;5053486;28;20037;-40
2023/12/19 02:50:01;;;;;;;16.63;8.48;;;;;;;5.08;72.63;100780.28;5053135;28;20108;-40
2023/12/19 02:52:26;;;;;;;14.77;8.32;;;;;;;5.18;72.48;100777.59;5053775;28;20025;-40
2023/12/19 02:54:52;;;;;;;16.83;8.82;;;;;;;5.04;73.18;100773.63;5052637;28;20036;-41
2023/12/19 02:57:17;;;;;;;17.08;8.35;;;;;;;4.92;73.20;100770.31;5053097;28;20029;-45
2023/12/19 02:59:43;;;;;;;12.85;7.20;;;;;;;4.87;72.96;100769.91;5053231;28;20439;-40
2023/12/19 03:02:08;;;;;;;10.77;6.18;;;;;;;4.86;73.54;100774.34;5053175;28;20056;-40
2023/12/19 03:04:33;;;;;;;13.95;6.35;;;;;;;5.03;73.02;100761.41;5043922;28;20025;-41
2023/12/19 03:06:59;;;;;;;9.45;5.90;;;;;;;5.12;72.88;100762.34;5033528;28;20029;-40
2023/12/19 03:09:24;;;;;;;11.90;6.30;;;;;;;4.92;73.04;100759.75;5033055;28;20040;-40
2023/12/19 03:12:06;;;;;;;10.80;6.28;;;;;;;4.94;73.08;100746.44;5032986;28;20030;-40
2023/12/19 03:14:35;;;;;;;10.07;6.15;;;;;;;4.90;73.04;100757.25;5032376;28;20030;-40
2023/12/19 03:17:02;;;;;;;11.00;7.13;;;;;;;4.93;73.62;100755.31;5032825;28;20040;-40
2023/12/19 03:19:28;;;;;;;11.27;6.38;;;;;;;4.86;73.15;100757.69;5032694;28;20037;-40
2023/12/19 03:21:54;;;;;;;10.57;6.63;;;;;;;5.05;72.90;100762.94;5042976;28;20074;-40
2023/12/19 03:24:20;;;;;;;13.45;7.72;;;;;;;5.02;72.59;100762.38;5052774;28;20497;-40
2023/12/19 03:26:45;;;;;;;10.90;6.93;;;;;;;5.11;72.66;100763.34;5052857;28;20032;-40
2023/12/19 03:29:10;;;;;;;13.35;7.30;;;;;;;4.84;73.14;100764.94;5052842;28;20025;-39
2023/12/19 03:31:36;;;;;;;12.95;7.20;;;;;;;4.58;73.51;100760.22;5052678;28;20044;-39
2023/12/19 03:34:02;;;;;;;12.68;7.63;;;;;;;4.61;74.26;100759.94;5052303;28;20095;-40
2023/12/19 03:36:30;;;;;;;13.90;7.78;;;;;;;4.43;74.76;100754.53;5052693;28;20503;-40
2023/12/19 03:38:56;;;;;;;13.40;8.07;;;;;;;4.19;74.99;100765.50;5053024;28;20032;-39
2023/12/19 03:41:21;;;;;;;14.20;7.80;;;;;;;4.03;76.83;100744.91;5052707;28;20028;-40
2023/12/19 03:43:47;;;;;;;12.20;6.70;;;;;;;4.00;76.66;100755.75;5052736;28;20108;-39
2023/12/19 03:46:14;;;;;;;10.02;5.82;;;;;;;4.24;75.58;100746.63;5052452;28;20025;-40
2023/12/19 03:48:40;;;;;;;9.98;5.57;;;;;;;4.74;74.43;100751.75;5052742;28;20025;-40
2023/12/19 03:51:05;;;;;;;10.90;6.45;;;;;;;5.04;72.14;100752.50;5052457;28;20400;-40
2023/12/19 03:53:31;;;;;;;11.30;6.65;;;;;;;4.69;73.23;100749.53;5052332;28;20033;-40
2023/12/19 03:55:56;;;;;;;12.43;6.70;;;;;;;4.74;73.04;100754.38;5052107;28;20116;-39
2023/12/19 03:58:22;;;;;;;11.60;6.88;;;;;;;4.54;73.52;100750.91;5052195;28;20110;-40
2023/12/19 04:00:48;;;;;;;13.75;6.43;;;;;;;4.37;74.18;100738.44;5052189;28;20457;-39
2023/12/19 04:03:13;;;;;;;13.63;6.80;;;;;;;4.49;74.17;100742.59;5052646;28;20032;-40
2023/12/19 04:05:39;;;;;;;13.35;6.68;;;;;;;4.52;74.57;100742.31;5047420;28;20021;-39
2023/12/19 04:08:04;;;;;;;11.98;6.30;;;;;;;4.46;74.68;100735.81;5032345;28;20078;-37
2023/12/19 04:10:29;;;;;;;21.92;9.93;;;;;;;4.50;74.34;100741.63;5032077;28;20541;-39
2023/12/19 04:12:55;;;;;;;19.00;9.57;;;;;;;4.55;73.71;100743.84;5032009;28;20022;-39
2023/12/19 04:15:20;;;;;;;15.30;8.35;;;;;;;4.42;73.42;100733.59;5031931;28;20159;-38
2023/12/19 04:17:46;;;;;;;16.10;8.75;;;;;;;4.24;72.92;100736.91;5032420;28;20621;-40
2023/12/19 04:20:12;;;;;;;19.67;10.07;;;;;;;4.01;73.95;100746.03;5032082;28;20078;-39
2023/12/19 04:22:38;;;;;;;18.23;9.68;;;;;;;3.84;74.58;100734.34;5031883;28;20419;-40
2023/12/19 04:25:03;;;;;;;19.25;10.45;;;;;;;3.49;76.61;100720.69;5041293;28;20028;-39
2023/12/19 04:27:29;;;;;;;19.50;9.68;;;;;;;3.36;77.80;100742.94;5048981;28;20021;-39
2023/12/19 04:29:57;;;;;;;23.55;10.13;;;;;;;3.22;78.79;100744.13;5051038;28;20019;-40
2023/12/19 04:32:22;;;;;;;19.35;10.25;;;;;;;3.29;77.38;100732.09;5051036;28;20461;-39
2023/12/19 04:34:48;;;;;;;20.25;9.65;;;;;;;3.26;79.13;100737.66;5051131;28;20033;-36
2023/12/19 04:37:13;;;;;;;18.77;10.50;;;;;;;3.34;78.46;100743.06;5049725;28;20036;-39
2023/12/19 04:39:39;;;;;;;20.58;10.57;;;;;;;3.30;79.23;100739.88;5050270;28;20040;-37
2023/12/19 04:42:07;;;;;;;19.20;9.23;;;;;;;3.29;79.15;100745.25;5050768;28;20013;-39
2023/12/19 04:44:36;;;;;;;22.95;9.82;;;;;;;3.43;78.46;100744.91;5047968;28;20021;-37
2023/12/19 04:47:02;;;;;;;22.30;9.40;;;;;;;3.25;79.64;100749.13;5050894;28;20129;-40
2023/12/19 04:49:28;;;;;;;20.55;9.38;;;;;;;3.28;79.82;100752.31;5050601;28;20039;-40
2023/12/19 04:51:53;;;;;;;18.92;8.57;;;;;;;3.16;79.70;100742.00;5050802;28;20054;-40
2023/12/19 04:54:19;;;;;;;16.00;8.10;;;;;;;3.26;80.90;100758.69;5051142;28;20088;-38
2023/12/19 04:56:44;;;;;;;16.60;8.55;;;;;;;3.39;79.69;100751.41;5048102;28;20421;-39
2023/12/19 04:59:10;;;;;;;16.42;8.68;;;;;;;3.41;79.47;100752.13;5050335;28;20032;-40
2023/12/19 05:01:39;;;;;;;18.75;10.00;;;;;;;3.39;79.01;100756.69;5045509;28;20133;-38
2023/12/19 05:04:05;;;;;;;;;;;;;;;3.66;78.58;100755.25;5038549;28;20460;-38
2023/12/19 05:06:30;;;;;;;17.40;10.27;;;;;;;3.30;78.31;100762.72;5051122;28;19913;-40
2023/12/19 05:08:55;;;;;;;20.92;10.45;;;;;;;3.15;78.69;100756.16;5051176;28;20032;-40
2023/12/19 05:11:21;;;;;;;20.15;9.88;;;;;;;3.18;79.29;100761.13;5051130;28;20029;-39
2023/12/19 05:13:46;;;;;;;19.92;10.40;;;;;;;2.91;81.20;100762.50;5051524;28;20029;-39
2023/12/19 05:16:15;;;;;;;20.20;10.77;;;;;;;2.87;82.29;100771.59;5051729;28;20487;-41
2023/12/19 05:18:42;;;;;;;18.85;10.10;;;;;;;2.87;81.39;100763.72;5050537;28;20115;-36
2023/12/19 05:21:09;;;;;;;22.98;10.80;;;;;;;3.03;80.48;100769.38;5031400;28;20034;-40
2023/12/19 05:23:35;;;;;;;19.38;11.75;;;;;;;2.83;79.77;100767.56;5031197;28;20029;-40
2023/12/19 05:26:01;;;;;;;24.83;12.75;;;;;;;3.17;80.32;100775.25;5030999;28;20116;-39
2023/12/19 05:28:26;;;;;;;22.92;12.73;;;;;;;2.98;80.74;100768.09;5030673;28;20025;-40
2023/12/19 05:30:56;;;;;;;23.63;11.88;;;;;;;2.97;80.22;100774.28;5031481;28;20201;-40
2023/12/19 05:33:22;;;;;;;26.30;12.25;;;;;;;3.05;79.31;100758.72;5031288;28;20065;-41
2023/12/19 05:35:48;;;;;;;24.73;11.55;;;;;;;2.79;79.06;100759.09;5030905;28;20060;-41
2023/12/19 05:38:13;;;;;;;18.95;10.02;;;;;;;2.92;79.16;100762.38;5044741;28;20025;-39
2023/12/19 05:40:42;;;;;;;16.80;9.32;;;;;;;2.87;80.65;100755.84;5056870;28;20025;-38
2023/12/19 05:43:08;;;;;;;15.60;8.90;;;;;;;3.36;80.12;100746.41;5056793;28;20499;-40
2023/12/19 05:45:34;;;;;;;16.20;8.32;;;;;;;3.71;78.88;100747.75;5056535;28;20416;-39
2023/12/19 05:47:59;;;;;;;14.40;7.85;;;;;;;3.94;79.29;100758.09;5056622;28;20025;-41
2023/12/19 05:50:24;;;;;;;17.15;8.73;;;;;;;3.80;79.89;100754.84;5056763;28;20025;-36
2023/12/19 05:52:50;;;;;;;19.23;10.77;;;;;;;3.99;82.32;100755.88;5057385;28;20036;-27
2023/12/19 05:55:15;;;;;;;18.88;10.80;;;;;;;7.44;100.00;100768.75;5057083;28;20029;-27
2023/12/19 05:57:41;;;;;;;16.55;8.48;;;;;;;10.61;78.65;100749.25;5057742;28;20040;-26
2023/12/19 06:00:07;;;;;;;12.98;7.90;;;;;;;9.73;59.57;100772.53;5057486;28;20029;-41
2023/12/19 06:02:32;;;;;;;19.08;9.70;;;;;;;8.12;61.79;100767.84;5057559;28;20017;-41
2023/12/19 06:05:02;;;;;;;20.70;11.68;;;;;;;7.41;64.12;100771.75;5057521;28;20396;-38
2023/12/19 06:07:27;;;;;;;19.00;11.25;;;;;;;6.77;66.86;100771.16;5057841;28;20036;-44
2023/12/19 06:09:52;;;;;;;22.02;11.88;;;;;;;6.60;66.82;100773.66;5047903;28;20037;-39
2023/12/19 06:12:18;;;;;;;20.00;11.65;;;;;;;6.50;67.67;100780.03;5056928;28;20033;-40
2023/12/19 06:14:43;;;;;;;24.10;12.48;;;;;;;6.71;66.89;100779.69;5057804;28;20075;-41
2023/12/19 06:17:09;;;;;;;20.20;11.50;;;;;;;6.78;66.13;100772.81;5057693;28;20025;-40
2023/12/19 06:19:34;;;;;;;21.17;10.70;;;;;;;6.78;66.78;100773.66;5057880;28;20190;-39
2023/12/19 06:22:00;;;;;;;15.70;8.55;;;;;;;6.74;67.38;100766.16;5057636;28;20037;-40
2023/12/19 06:24:25;;;;;;;16.08;7.82;;;;;;;6.93;66.33;100763.34;5057483;28;20032;-40
2023/12/19 06:26:50;;;;;;;12.77;7.72;;;;;;;7.48;65.53;100770.09;5057662;28;20029;-40
2023/12/19 06:29:16;;;;;;;11.10;6.88;;;;;;;8.20;61.42;100765.19;5057653;28;20087;-43
2023/12/19 06:31:46;;;;;;;12.20;6.85;;;;;;;8.25;61.49;100770.03;5057207;28;20040;-39
2023/12/19 06:34:11;;;;;;;13.20;7.40;;;;;;;8.25;61.64;100772.69;5056132;28;20061;-37
2023/12/19 06:36:38;;;;;;;12.60;7.65;;;;;;;8.45;60.96;100764.44;5056986;28;20041;-40
2023/12/19 06:39:04;;;;;;;17.35;9.18;;;;;;;8.80;60.63;100763.31;5056835;28;20025;-39
2023/12/19 06:41:29;;;;;;;17.08;9.05;;;;;;;9.70;58.89;100768.38;5056872;28;20050;-40
2023/12/19 06:43:55;;;;;;;16.73;9.23;;;;;;;10.61;56.45;100774.03;5056222;28;20028;-40
2023/12/19 06:46:21;;;;;;;15.02;9.45;;;;;;;11.27;53.55;100768.09;5056787;28;20548;-40
2023/12/19 06:48:47;;;;;;;15.10;8.57;;;;;;;11.90;52.82;100765.88;5056754;28;20025;-40
2023/12/19 06:51:26;;;;;;;12.93;8.30;;;;;;;12.40;51.70;100758.81;5053705;28;20036;-42
2023/12/19 06:53:55;;;;;;;16.08;9.95;;;;;;;12.65;49.64;100761.09;5054638;28;20029;-39
2023/12/19 06:56:21;;;;;;;18.08;11.20;;;;;;;12.95;48.99;100766.28;5054393;28;20099;-42
2023/12/19 06:58:47;;;;;;;21.50;12.35;;;;;;;13.24;48.15;100763.38;5054219;28;20555;-38
2023/12/19 07:01:14;;;;;;;22.58;13.18;;;;;;;13.41;47.76;100781.84;5054225;28;20045;-39
2023/12/19 07:03:41;;;;;;;32.83;16.30;;;;;;;13.78;45.67;100772.53;5054174;28;20029;-40
2023/12/19 07:06:07;;;;;;;25.60;15.18;;;;;;;14.01;44.89;100788.28;5054139;28;20043;-40
2023/12/19 07:08:32;;;;;;;24.00;14.38;;;;;;;13.95;44.97;100790.94;5053915;28;20485;-39
2023/12/19 07:10:58;;;;;;;35.60;24.08;;;;;;;14.11;45.05;100779.88;5054035;28;20029;-40
2023/12/19 07:13:23;;;;;;;25.95;16.10;;;;;;;14.36;43.70;100788.16;5053902;28;20032;-41
2023/12/19 07:15:48;;;;;;;24.80;16.02;;;;;;;14.21;43.61;100791.00;5053778;28;20025;-40
2023/12/19 07:18:14;;;;;;;39.40;23.95;;;;;;;14.12;42.98;100802.94;5053479;28;20078;-38
2023/12/19 07:20:39;;;;;;;37.17;22.92;;;;;;;13.33;43.88;100793.50;5053801;28;20029;-37
2023/12/19 07:23:05;;;;;;;43.47;22.88;;;;;;;12.27;46.15;100788.03;5053262;28;20152;-41
2023/12/19 07:25:30;;;;;;;43.55;27.00;;;;;;;11.90;47.15;100782.72;5053461;28;20059;-40
2023/12/19 07:27:56;;;;;;;50.97;30.30;;;;;;;12.09;46.90;100785.81;5053484;28;20097;-41
2023/12/19 07:30:21;;;;;;;57.08;33.92;;;;;;;11.94;47.16;100780.50;5053629;28;20040;-40
2023/12/19 07:32:50;;;;;;;52.92;31.27;;;;;;;12.01;48.06;100780.56;5053216;28;20197;-38
2023/12/19 07:35:19;;;;;;;49.20;26.10;;;;;;;12.38;46.32;100766.19;5053145;28;20033;-39
2023/12/19 07:37:44;;;;;;;50.50;27.33;;;;;;;11.70;48.17;100777.09;5053198;28;20031;-38
2023/12/19 07:40:10;;;;;;;50.92;25.33;;;;;;;12.19;47.42;100764.16;5053168;28;20103;-40
2023/12/19 07:42:36;;;;;;;35.63;21.40;;;;;;;11.84;47.40;100766.59;5053053;28;20575;-37
2023/12/19 07:45:02;;;;;;;37.75;20.58;;;;;;;11.20;49.25;100757.34;5053450;28;20107;-41
2023/12/19 07:47:28;;;;;;;34.55;15.88;;;;;;;11.03;50.79;100767.34;5053101;28;20060;-38
2023/12/19 07:49:53;;;;;;;26.55;14.95;;;;;;;10.92;50.64;100765.13;5053153;28;20114;-40
2023/12/19 07:52:19;;;;;;;26.42;14.30;;;;;;;10.97;51.23;100754.75;5053024;28;20029;-39
2023/12/19 07:54:44;;;;;;;24.85;14.18;;;;;;;11.80;50.05;100751.97;5052844;28;20082;-40
2023/12/19 07:57:10;;;;;;;29.40;14.25;;;;;;;11.88;49.88;100746.53;5052884;28;20021;-39
2023/12/19 07:59:35;;;;;;;26.30;14.45;;;;;;;12.02;49.04;100751.03;5052974;28;20166;-42
2023/12/19 08:02:01;;;;;;;25.38;14.98;;;;;;;12.02;49.70;100759.03;5052878;28;20021;-41
2023/12/19 08:04:26;;;;;;;23.63;14.73;;;;;;;11.89;50.81;100756.19;5052928;28;20481;-40
2023/12/19 08:06:51;;;;;;;29.35;16.08;;;;;;;12.47;48.71;100749.03;5052774;28;20095;-39
2023/12/19 08:09:17;;;;;;;26.67;16.75;;;;;;;11.26;51.63;100745.94;5052756;28;20230;-41
2023/12/19 08:11:42;;;;;;;28.85;17.13;;;;;;;11.01;52.81;100747.22;5052940;28;20082;-38
2023/12/19 08:14:08;;;;;;;31.10;16.20;;;;;;;11.09;53.41;100744.47;5052789;28;20033;-41
2023/12/19 08:16:33;;;;;;;30.80;15.57;;;;;;;11.70;52.38;100745.09;5053008;28;20021;-38
2023/12/19 08:18:59;;;;;;;29.23;15.80;;;;;;;12.71;50.13;100739.78;5052538;28;20108;-40
2023/12/19 08:21:24;;;;;;;30.48;15.18;;;;;;;12.85;48.83;100735.38;5052812;28;20028;-38
2023/12/19 08:23:50;;;;;;;24.92;14.40;;;;;;;12.60;50.17;100737.63;5052486;28;20052;-41
2023/12/19 08:26:16;;;;;;;25.77;14.77;;;;;;;12.55;49.95;100729.38;5052713;28;20044;-39
2023/12/19 08:28:41;;;;;;;25.98;14.45;;;;;;;12.72;50.20;100729.94;5052343;28;20071;-42
2023/12/19 08:31:07;;;;;;;25.70;14.80;;;;;;;12.74;50.12;100724.38;5052407;28;20033;-39
2023/12/19 08:33:32;;;;;;;30.17;14.52;;;;;;;12.98;49.78;100729.28;5052328;28;20121;-39
2023/12/19 08:35:57;;;;;;;24.88;14.77;;;;;;;13.11;48.97;100725.88;5052059;28;20056;-40
2023/12/19 08:38:23;;;;;;;24.05;13.57;;;;;;;13.11;51.21;100717.88;5051962;28;20032;-39
2023/12/19 08:40:48;;;;;;;23.33;14.10;;;;;;;13.39;50.82;100717.84;5051755;28;20116;-40
2023/12/19 08:43:13;;;;;;;28.70;14.05;;;;;;;13.45;48.23;100713.56;5052099;28;20063;-38
2023/12/19 08:45:39;;;;;;;27.15;14.80;;;;;;;13.64;48.59;100706.66;5051921;28;20031;-41
2023/12/19 08:48:05;;;;;;;35.35;15.68;;;;;;;13.42;49.29;100705.94;5051672;28;20020;-40
2023/12/19 08:50:30;;;;;;;27.50;14.93;;;;;;;13.61;48.66;100704.38;5051863;28;20038;-41
2023/12/19 08:52:56;;;;;;;29.70;15.57;;;;;;;13.70;48.04;100689.78;5051657;28;20024;-40
2023/12/19 08:55:22;;;;;;;29.65;14.50;;;;;;;13.60;48.27;100692.84;5051727;28;20021;-38
2023/12/19 08:57:48;;;;;;;28.13;14.27;;;;;;;13.74;48.14;100691.03;5051859;28;20025;-42
2023/12/19 09:00:20;;;;;;;25.30;13.50;;;;;;;14.17;51.72;100693.41;5051812;28;20104;-39
2023/12/19 09:02:46;;;;;;;25.05;13.52;;;;;;;14.00;47.38;100687.59;5052150;28;20047;-38
2023/12/19 09:05:13;;;;;;;23.25;13.35;;;;;;;14.05;46.62;100682.47;5051786;28;20055;-40
2023/12/19 09:07:39;;;;;;;25.13;14.55;;;;;;;13.83;47.52;100691.69;5051849;28;20025;-41
2023/12/19 09:10:06;;;;;;;21.00;14.35;;;;;;;13.32;48.82;100673.41;5051876;28;20086;-40
2023/12/19 09:12:32;;;;;;;24.13;15.07;;;;;;;13.56;48.29;100672.88;5051235;28;20025;-41
2023/12/19 09:14:58;;;;;;;25.85;15.27;;;;;;;13.86;46.68;100661.88;5051449;28;20032;-41
2023/12/19 09:17:23;;;;;;;25.70;13.73;;;;;;;13.77;47.63;100660.41;5051728;28;20091;-42
2023/12/19 09:19:48;;;;;;;25.75;14.10;;;;;;;13.69;47.84;100654.22;5051535;28;20025;-42
2023/12/19 09:22:14;;;;;;;23.30;13.98;;;;;;;13.73;48.45;100648.44;5051323;28;20048;-42
2023/12/19 09:24:39;;;;;;;16.23;10.13;;;;;;;14.20;46.46;100642.16;5051364;28;20043;-39
2023/12/19 09:27:04;;;;;;;11.40;6.53;;;;;;;14.83;44.21;100633.66;5051529;28;20017;-41
2023/12/19 09:29:30;;;;;;;10.55;6.95;;;;;;;15.87;41.96;100635.50;5051192;28;20507;-42
2023/12/19 09:31:56;;;;;;;18.55;10.73;;;;;;;16.60;40.45;100629.53;5051293;28;20055;-40
2023/12/19 09:34:21;;;;;;;20.13;9.93;;;;;;;16.76;39.73;100631.66;5050866;28;20055;-38
2023/12/19 09:36:47;;;;;;;19.08;9.73;;;;;;;16.79;40.25;100628.53;5051048;28;20272;-42
2023/12/19 09:39:14;;;;;;;23.20;12.55;;;;;;;17.04;40.28;100630.38;5051570;28;20025;-41
2023/12/19 09:41:45;;;;;;;24.08;11.57;;;;;;;17.35;40.53;100623.97;5051639;28;20466;-40
2023/12/19 09:44:10;;;;;;;22.63;12.48;;;;;;;17.82;39.42;100614.41;5051272;28;20028;-41
2023/12/19 09:46:36;;;;;;;21.38;11.57;;;;;;;17.72;39.77;100620.38;5051624;28;20025;-40
2023/12/19 09:49:02;;;;;;;23.10;12.82;;;;;;;17.27;40.22;100613.53;5051437;28;20021;-41
2023/12/19 09:51:32;;;;;;;24.50;13.00;;;;;;;16.50;41.90;100619.28;5051437;28;20544;-41
2023/12/19 09:54:00;;;;;;;27.95;13.35;;;;;;;16.60;40.87;100613.41;5051913;28;20029;-41
2023/12/19 09:56:26;;;;;;;30.50;13.13;;;;;;;16.60;41.79;100608.03;5051273;28;20029;-40
2023/12/19 09:59:00;;;;;;;36.05;13.45;;;;;;;16.75;41.66;100605.84;5051152;28;20526;-41
2023/12/19 10:01:25;;;;;;;29.63;13.20;;;;;;;16.86;40.34;100601.59;5051274;28;20044;-40
2023/12/19 10:03:55;;;;;;;28.42;12.63;;;;;;;16.62;41.05;100595.22;5051367;28;20021;-41
2023/12/19 10:06:20;;;;;;;;;;;;;;;16.59;41.31;100595.66;5052231;28;20029;-43
2023/12/19 10:08:47;;;;;;;32.70;12.90;;;;;;;16.21;42.75;100592.06;5051454;28;19959;-41
2023/12/19 10:11:21;;;;;;;28.30;11.93;;;;;;;16.05;42.04;100579.22;5051294;28;20050;-43
2023/12/19 10:13:47;;;;;;;37.63;12.80;;;;;;;15.99;42.78;100569.34;5051229;28;20025;-39
2023/12/19 10:16:17;;;;;;;31.70;13.10;;;;;;;15.64;43.94;100584.00;5051449;28;20021;-42
2023/12/19 10:18:44;;;;;;;34.10;12.02;;;;;;;15.95;42.56;100579.69;5051171;28;20374;-42
2023/12/19 10:21:11;;;;;;;25.40;11.15;;;;;;;16.02;42.89;100577.78;5051513;28;20020;-40
2023/12/19 10:23:43;;;;;;;29.92;11.55;;;;;;;16.68;42.28;100572.00;5051096;28;20029;-40
2023/12/19 10:26:09;;;;;;;23.65;11.38;;;;;;;16.50;42.00;100568.25;5054170;28;20024;-41
2023/12/19 10:28:35;;;;;;;21.23;11.00;;;;;;;16.95;41.26;100554.56;5054769;28;20021;-41
2023/12/19 10:31:11;;;;;;;24.15;10.70;;;;;;;16.80;41.60;100554.91;5054972;28;20032;-44
2023/12/19 10:33:45;;;;;;;23.48;11.35;;;;;;;17.31;41.17;100552.03;5054777;28;20041;-42
2023/12/19 10:36:24;;;;;;;26.73;11.32;;;;;;;17.37;40.45;100543.84;5055027;28;20044;-41
2023/12/19 10:38:51;;;;;;;32.88;12.43;;;;;;;17.77;39.73;100555.91;5054504;28;20029;-42
2023/12/19 10:41:26;;;;;;;24.40;10.98;;;;;;;17.59;40.15;100546.00;5054871;28;20024;-42
2023/12/19 10:43:54;;;;;;;24.10;10.75;;;;;;;17.71;39.79;100535.31;5054619;28;20032;-42
2023/12/19 10:46:24;;;;;;;19.27;9.95;;;;;;;17.78;39.88;100533.28;5054908;28;20025;-42
2023/12/19 10:48:51;;;;;;;23.17;10.15;;;;;;;18.03;39.13;100526.91;5054663;28;20116;-41
2023/12/19 10:51:24;;;;;;;26.98;10.18;;;;;;;18.09;39.45;100516.03;5054497;28;20418;-45
2023/12/19 10:53:58;;;;;;;20.55;10.93;;;;;;;18.01;38.71;100507.47;5054402;28;20132;-41
2023/12/19 10:56:24;;;;;;;24.00;10.73;;;;;;;18.24;38.27;100499.41;5054393;28;20029;-40
2023/12/19 10:59:01;;;;;;;18.52;9.15;;;;;;;18.28;37.29;100500.56;5054372;28;20108;-38
2023/12/19 11:01:29;;;;;;;19.05;9.13;;;;;;;18.28;37.31;100503.28;5054216;28;20465;-41
2023/12/19 11:03:59;;;;;;;26.95;9.40;;;;;;;18.18;38.54;100492.25;5054051;28;20021;-40
2023/12/19 11:06:29;;;;;;;17.95;9.02;;;;;;;18.57;38.00;100487.16;5054367;28;20021;-39
2023/12/19 11:08:58;;;;;;;16.80;7.63;;;;;;;17.87;38.34;100486.16;5054257;28;20470;-40
2023/12/19 11:11:35;;;;;;;13.95;7.55;;;;;;;18.48;37.36;100492.09;5054290;28;20031;-43
2023/12/19 11:14:02;;;;;;;14.70;7.75;;;;;;;18.73;36.42;100477.50;5053938;28;20511;-41
2023/12/19 11:16:39;;;;;;;18.95;8.95;;;;;;;18.84;37.10;100481.25;5054100;28;20029;-41